createdAt,value
2023-03-02T00:01:56.871Z,3.22
2023-03-02T00:04:27.822Z,2.58
2023-03-02T00:07:00.662Z,3.33
2023-03-02T00:09:31.511Z,4.78
2023-03-02T00:12:00.121Z,2.55
2023-03-02T00:14:28.716Z,3.17
2023-03-02T00:16:57.289Z,5.10
2023-03-02T00:19:25.895Z,3.65
2023-03-02T00:21:54.412Z,3.35
2023-03-02T00:24:23.148Z,2.72
2023-03-02T00:26:53.307Z,2.63
2023-03-02T00:29:21.849Z,2.88
2023-03-02T00:31:50.627Z,2.55
2023-03-02T00:34:19.287Z,2.20
2023-03-02T00:36:49.550Z,2.20
2023-03-02T00:39:20.362Z,2.72
2023-03-02T00:41:49.621Z,2.72
2023-03-02T00:44:19.673Z,4.38
2023-03-02T00:46:48.310Z,2.90
2023-03-02T00:49:16.958Z,2.58
2023-03-02T00:51:45.541Z,2.90
2023-03-02T00:54:33.017Z,2.50
2023-03-02T00:57:20.396Z,3.05
2023-03-02T01:00:10.948Z,2.90
2023-03-02T01:02:59.988Z,2.60
2023-03-02T01:05:47.347Z,3.17
2023-03-02T01:08:34.446Z,4.60
2023-03-02T01:11:23.606Z,1.83
2023-03-02T01:14:11.623Z,3.90
2023-03-02T01:17:00.473Z,3.85
2023-03-02T01:19:48.068Z,2.55
2023-03-02T01:22:35.412Z,4.15
2023-03-02T01:25:04.754Z,2.47
2023-03-02T01:27:33.448Z,2.38
2023-03-02T01:30:02.033Z,2.20
2023-03-02T01:32:34.148Z,3.50
2023-03-02T01:35:02.771Z,3.70
2023-03-02T01:37:31.304Z,2.65
2023-03-02T01:39:59.950Z,3.70
2023-03-02T01:42:28.581Z,2.85
2023-03-02T01:44:57.549Z,4.35
2023-03-02T01:47:29.682Z,3.03
2023-03-02T01:50:20.016Z,3.00
2023-03-02T01:52:50.896Z,2.97
2023-03-02T01:55:24.810Z,2.85
2023-03-02T01:57:55.945Z,2.15
2023-03-02T02:00:28.217Z,4.88
2023-03-02T02:03:08.866Z,3.35
2023-03-02T02:05:41.342Z,2.53
2023-03-02T02:08:11.076Z,3.10
2023-03-02T02:10:41.904Z,3.78
2023-03-02T02:13:11.992Z,3.72
2023-03-02T02:15:41.623Z,3.13
2023-03-02T02:18:29.006Z,2.55
2023-03-02T02:20:59.385Z,2.95
2023-03-02T02:23:30.114Z,3.35
2023-03-02T02:26:18.565Z,3.33
2023-03-02T02:28:57.727Z,3.78
2023-03-02T02:31:36.157Z,2.63
2023-03-02T02:34:08.595Z,3.78
2023-03-02T02:36:41.223Z,4.03
2023-03-02T02:39:19.922Z,3.85
2023-03-02T02:41:52.208Z,2.92
2023-03-02T02:44:21.455Z,3.00
2023-03-02T02:46:50.322Z,2.42
2023-03-02T02:49:29.694Z,3.70
2023-03-02T02:51:58.561Z,3.00
2023-03-02T02:54:29.241Z,3.80
2023-03-02T02:57:00.756Z,4.28
2023-03-02T02:59:33.892Z,4.95
2023-03-02T03:02:03.369Z,2.83
2023-03-02T03:04:33.635Z,3.85
2023-03-02T03:07:05.568Z,4.95
2023-03-02T03:09:34.876Z,3.67
2023-03-02T03:12:09.896Z,3.72
2023-03-02T03:14:41.254Z,3.75
2023-03-02T03:17:30.666Z,4.40
2023-03-02T03:20:06.591Z,3.05
2023-03-02T03:22:39.681Z,3.22
2023-03-02T03:25:14.785Z,3.65
2023-03-02T03:27:46.779Z,3.72
2023-03-02T03:30:17.034Z,5.05
2023-03-02T03:32:46.161Z,6.10
2023-03-02T03:35:16.868Z,5.65
2023-03-02T03:37:48.542Z,4.07
2023-03-02T03:40:18.482Z,4.15
2023-03-02T03:42:49.698Z,4.68
2023-03-02T03:45:18.477Z,5.00
2023-03-02T03:47:47.150Z,3.83
2023-03-02T03:50:15.844Z,3.83
2023-03-02T03:52:45.779Z,3.40
2023-03-02T03:55:22.592Z,4.90
2023-03-02T03:57:53.388Z,5.72
2023-03-02T04:00:22.833Z,3.60
2023-03-02T04:02:57.295Z,4.53
2023-03-02T04:05:28.511Z,4.85
2023-03-02T04:07:59.273Z,3.95
2023-03-02T04:10:27.941Z,4.72
2023-03-02T04:12:58.231Z,4.07
2023-03-02T04:15:27.461Z,4.30
2023-03-02T04:17:57.330Z,5.95
2023-03-02T04:20:28.083Z,4.22
2023-03-02T04:22:58.791Z,5.68
2023-03-02T04:25:29.052Z,3.47
2023-03-02T04:28:07.654Z,5.15
2023-03-02T04:30:39.553Z,5.03
2023-03-02T04:33:08.417Z,5.13
2023-03-02T04:35:37.885Z,5.05
2023-03-02T04:38:06.452Z,5.32
2023-03-02T04:40:35.648Z,4.72
2023-03-02T04:43:04.188Z,4.68
2023-03-02T04:45:34.275Z,4.05
2023-03-02T04:48:02.833Z,3.70
2023-03-02T04:50:31.655Z,4.05
2023-03-02T04:53:00.437Z,4.95
2023-03-02T04:55:29.433Z,5.75
2023-03-02T04:57:58.076Z,4.40
2023-03-02T05:00:28.911Z,5.72
2023-03-02T05:02:59.075Z,3.60
2023-03-02T05:05:28.348Z,6.43
2023-03-02T05:08:15.476Z,4.18
2023-03-02T05:10:44.122Z,4.55
2023-03-02T05:13:12.684Z,4.05
2023-03-02T05:15:43.542Z,5.38
2023-03-02T05:18:14.530Z,6.05
2023-03-02T05:20:43.027Z,3.65
2023-03-02T05:23:17.209Z,4.20
2023-03-02T05:25:45.792Z,3.83
2023-03-02T05:28:14.244Z,3.30
2023-03-02T05:30:42.890Z,3.95
2023-03-02T05:33:11.666Z,4.22
2023-03-02T05:35:41.607Z,4.95
2023-03-02T05:38:11.167Z,3.00
2023-03-02T05:40:40.839Z,4.13
2023-03-02T05:43:09.432Z,5.68
2023-03-02T05:45:39.653Z,5.60
2023-03-02T05:48:08.754Z,3.20
2023-03-02T05:50:37.177Z,4.10
2023-03-02T05:53:07.268Z,3.67
2023-03-02T05:55:37.229Z,4.30
2023-03-02T05:58:07.513Z,3.92
2023-03-02T06:00:36.333Z,4.22
2023-03-02T06:03:13.991Z,5.10
2023-03-02T06:05:42.610Z,4.57
2023-03-02T06:08:12.619Z,3.95
2023-03-02T06:10:41.119Z,3.83
2023-03-02T06:13:09.618Z,3.60
2023-03-02T06:15:39.854Z,4.93
2023-03-02T06:18:08.357Z,5.18
2023-03-02T06:20:36.849Z,4.63
2023-03-02T06:23:05.329Z,3.70
2023-03-02T06:25:36.149Z,4.30
2023-03-02T06:28:04.855Z,3.55
2023-03-02T06:30:33.292Z,3.65
2023-03-02T06:33:01.790Z,4.47
2023-03-02T06:35:30.561Z,5.22
2023-03-02T06:37:59.114Z,4.70
2023-03-02T06:40:27.732Z,4.45
2023-03-02T06:43:00.667Z,5.03
2023-03-02T06:45:33.672Z,3.35
2023-03-02T06:48:02.934Z,3.20
2023-03-02T06:50:31.447Z,4.43
2023-03-02T06:53:00.023Z,4.60
2023-03-02T06:55:28.898Z,3.10
2023-03-02T06:57:58.803Z,3.63
2023-03-02T07:00:28.473Z,4.55
2023-03-02T07:02:57.772Z,5.95
2023-03-02T07:05:26.442Z,4.47
2023-03-02T07:07:54.909Z,4.80
2023-03-02T07:10:23.533Z,3.47
2023-03-02T07:12:52.821Z,4.57
2023-03-02T07:15:22.937Z,4.93
2023-03-02T07:17:51.404Z,3.35
2023-03-02T07:20:20.569Z,4.30
2023-03-02T07:22:49.688Z,4.50
2023-03-02T07:25:18.356Z,5.35
2023-03-02T07:27:47.025Z,3.72
2023-03-02T07:30:16.268Z,4.45
2023-03-02T07:32:46.266Z,6.13
2023-03-02T07:35:14.846Z,4.35
2023-03-02T07:37:43.344Z,6.53
2023-03-02T07:40:13.774Z,4.28
2023-03-02T07:42:42.290Z,3.75
2023-03-02T07:45:12.800Z,5.60
2023-03-02T07:47:41.395Z,4.47
2023-03-02T07:50:12.894Z,4.05
2023-03-02T07:52:41.381Z,4.85
2023-03-02T07:55:11.054Z,4.13
2023-03-02T07:57:39.699Z,4.95
2023-03-02T08:00:09.812Z,4.80
2023-03-02T08:02:41.706Z,3.45
2023-03-02T08:05:12.942Z,6.35
2023-03-02T08:07:42.527Z,6.80
2023-03-02T08:10:12.931Z,3.83
2023-03-02T08:12:42.992Z,5.20
2023-03-02T08:15:12.903Z,3.58
2023-03-02T08:17:41.352Z,3.00
2023-03-02T08:20:12.192Z,5.70
2023-03-02T08:22:40.778Z,3.40
2023-03-02T08:25:10.529Z,3.83
2023-03-02T08:27:40.365Z,4.30
2023-03-02T08:30:10.894Z,4.97
2023-03-02T08:32:39.477Z,3.63
2023-03-02T08:35:09.316Z,4.20
2023-03-02T08:37:39.293Z,3.70
2023-03-02T08:40:09.076Z,3.13
2023-03-02T08:42:37.631Z,3.95
2023-03-02T08:45:07.200Z,3.47
2023-03-02T08:47:35.978Z,3.08
2023-03-02T08:50:08.141Z,3.10
2023-03-02T08:52:38.817Z,3.10
2023-03-02T08:55:09.108Z,3.60
2023-03-02T08:57:41.766Z,3.42
2023-03-02T09:00:14.974Z,2.90
2023-03-02T09:02:43.679Z,4.22
2023-03-02T09:05:12.682Z,4.13
2023-03-02T09:07:42.764Z,3.28
2023-03-02T09:10:12.482Z,4.47
2023-03-02T09:12:41.100Z,3.60
2023-03-02T09:15:10.154Z,4.25
2023-03-02T09:17:38.792Z,3.22
2023-03-02T09:20:09.140Z,3.42
2023-03-02T09:22:37.935Z,2.67
2023-03-02T09:25:09.517Z,3.50
2023-03-02T09:27:38.055Z,4.68
2023-03-02T09:30:07.770Z,4.30
2023-03-02T09:32:36.701Z,4.40
2023-03-02T09:35:05.619Z,4.75
2023-03-02T09:37:35.250Z,4.38
2023-03-02T09:40:04.147Z,4.45
2023-03-02T09:43:01.414Z,4.05
2023-03-02T09:45:59.767Z,4.05
2023-03-02T09:48:42.074Z,4.20
2023-03-02T09:51:26.174Z,4.30
2023-03-02T09:54:04.559Z,4.95
2023-03-02T09:56:37.126Z,3.65
2023-03-02T09:59:14.861Z,4.07
2023-03-02T10:01:48.556Z,4.82
2023-03-02T10:04:23.738Z,5.45
2023-03-02T10:06:58.405Z,3.95
2023-03-02T10:09:27.427Z,3.92
2023-03-02T10:12:09.665Z,4.03
2023-03-02T10:14:44.752Z,4.13
2023-03-02T10:17:38.315Z,4.25
2023-03-02T10:20:15.444Z,5.20
2023-03-02T10:22:49.272Z,3.97
2023-03-02T10:25:31.789Z,4.43
2023-03-02T10:28:11.905Z,4.53
2023-03-02T10:30:42.348Z,3.58
2023-03-02T10:33:16.398Z,4.03
2023-03-02T10:35:49.474Z,3.75
2023-03-02T10:38:20.414Z,3.05
2023-03-02T10:40:53.305Z,3.85
2023-03-02T10:43:27.069Z,2.70
2023-03-02T10:46:07.710Z,5.63
2023-03-02T10:48:49.990Z,2.95
2023-03-02T10:51:28.072Z,4.10
2023-03-02T10:54:07.664Z,2.95
2023-03-02T10:56:36.346Z,3.92
2023-03-02T10:59:27.128Z,3.60
2023-03-02T11:02:02.667Z,3.55
2023-03-02T11:04:32.589Z,4.05
2023-03-02T11:07:12.231Z,3.38
2023-03-02T11:09:40.938Z,3.67
2023-03-02T11:12:15.901Z,3.35
2023-03-02T11:14:44.626Z,5.40
2023-03-02T11:17:32.237Z,3.83
2023-03-02T11:20:02.946Z,3.88
2023-03-02T11:22:37.689Z,3.05
2023-03-02T11:25:12.950Z,3.20
2023-03-02T11:27:45.329Z,5.28
2023-03-02T11:30:18.638Z,6.15
2023-03-02T11:32:55.573Z,3.85
2023-03-02T11:35:32.391Z,3.88
2023-03-02T11:38:11.602Z,3.17
2023-03-02T11:40:47.296Z,5.53
2023-03-02T11:43:16.600Z,3.30
2023-03-02T11:45:48.026Z,3.58
2023-03-02T11:48:27.568Z,3.60
2023-03-02T11:51:00.130Z,3.90
2023-03-02T11:53:33.442Z,3.50
2023-03-02T11:56:02.241Z,3.05
2023-03-02T11:58:32.835Z,3.42
2023-03-02T12:01:02.273Z,3.08
2023-03-02T12:03:41.609Z,3.40
2023-03-02T12:06:27.805Z,4.32
2023-03-02T12:09:17.310Z,3.05
2023-03-02T12:11:47.465Z,3.70
2023-03-02T12:14:36.599Z,4.03
2023-03-02T12:17:20.315Z,3.83
2023-03-02T12:19:51.474Z,4.00
2023-03-02T12:22:32.349Z,3.15
2023-03-02T12:25:05.504Z,4.47
2023-03-02T12:27:39.598Z,5.20
2023-03-02T12:30:27.535Z,3.30
2023-03-02T12:33:05.917Z,2.50
2023-03-02T12:35:36.367Z,3.45
2023-03-02T12:38:09.120Z,4.63
2023-03-02T12:40:54.206Z,4.15
2023-03-02T12:43:32.397Z,4.10
2023-03-02T12:46:32.721Z,5.65
2023-03-02T12:49:14.653Z,4.32
2023-03-02T12:51:54.477Z,4.18
2023-03-02T12:54:25.727Z,4.47
2023-03-02T12:57:08.968Z,5.15
2023-03-02T12:59:38.170Z,5.32
2023-03-02T13:02:18.634Z,4.30
2023-03-02T13:04:54.282Z,5.22
2023-03-02T13:07:27.872Z,4.93
2023-03-02T13:09:58.955Z,5.05
2023-03-02T13:12:29.516Z,4.65
2023-03-02T13:15:00.320Z,4.90
2023-03-02T13:17:31.354Z,5.00
2023-03-02T13:20:00.915Z,4.55
2023-03-02T13:22:31.254Z,3.80
2023-03-02T13:25:02.351Z,3.70
2023-03-02T13:27:31.929Z,3.75
2023-03-02T13:30:11.145Z,5.20
2023-03-02T13:32:42.196Z,4.43
2023-03-02T13:35:20.563Z,6.68
2023-03-02T13:37:57.967Z,4.85
2023-03-02T13:40:42.145Z,3.58
2023-03-02T13:43:31.528Z,4.53
2023-03-02T13:46:02.602Z,3.83
2023-03-02T13:48:33.263Z,3.95
2023-03-02T13:51:04.023Z,4.40
2023-03-02T13:53:38.024Z,3.35
2023-03-02T13:56:06.909Z,6.07
2023-03-02T13:58:39.693Z,8.00
2023-03-02T14:01:08.918Z,12.75
2023-03-02T14:03:37.371Z,12.75
2023-03-02T14:06:07.085Z,13.60
2023-03-02T14:08:37.132Z,9.68
2023-03-02T14:11:06.419Z,10.07
2023-03-02T14:13:39.317Z,11.15
2023-03-02T14:16:08.902Z,12.43
2023-03-02T14:18:40.438Z,14.23
2023-03-02T14:21:14.226Z,12.10
2023-03-02T14:23:44.474Z,12.48
2023-03-02T14:26:31.876Z,13.35
2023-03-02T14:29:05.832Z,12.07
2023-03-02T14:31:35.390Z,12.55
2023-03-02T14:34:04.235Z,11.60
2023-03-02T14:36:34.919Z,17.92
2023-03-02T14:39:19.839Z,10.65
2023-03-02T14:41:53.775Z,9.65
2023-03-02T14:44:23.198Z,10.68
2023-03-02T14:46:51.943Z,10.77
2023-03-02T14:49:20.379Z,10.90
2023-03-02T14:51:56.394Z,11.05
2023-03-02T14:54:26.592Z,11.00
2023-03-02T14:56:56.061Z,10.45
2023-03-02T14:59:24.654Z,10.45
2023-03-02T15:01:53.259Z,10.60
2023-03-02T15:04:22.170Z,8.73
2023-03-02T15:06:51.173Z,10.77
2023-03-02T15:09:19.660Z,8.95
2023-03-02T15:11:49.494Z,8.15
2023-03-02T15:14:17.960Z,10.88
2023-03-02T15:16:46.510Z,10.85
2023-03-02T15:19:15.093Z,8.80
2023-03-02T15:21:45.595Z,12.95
2023-03-02T15:24:14.561Z,9.60
2023-03-02T15:26:43.038Z,10.07
2023-03-02T15:29:13.018Z,7.00
2023-03-02T15:31:41.697Z,7.78
2023-03-02T15:34:10.321Z,8.30
2023-03-02T15:36:39.052Z,6.97
2023-03-02T15:39:08.922Z,11.00
2023-03-02T15:41:37.495Z,8.88
2023-03-02T15:44:06.125Z,10.07
2023-03-02T15:46:36.484Z,9.02
2023-03-02T15:49:05.059Z,7.80
2023-03-02T15:51:33.518Z,8.68
2023-03-02T15:54:01.994Z,6.75
2023-03-02T15:56:38.890Z,7.90
2023-03-02T15:59:12.770Z,7.18
2023-03-02T16:01:42.679Z,9.00
2023-03-02T16:04:11.301Z,11.68
2023-03-02T16:06:39.818Z,12.98
2023-03-02T16:09:08.459Z,8.48
2023-03-02T16:11:37.406Z,6.53
2023-03-02T16:14:06.033Z,9.77
2023-03-02T16:16:34.631Z,6.55
2023-03-02T16:19:04.715Z,8.30
2023-03-02T16:21:33.198Z,7.72
2023-03-02T16:24:04.710Z,7.93
2023-03-02T16:26:34.855Z,9.32
2023-03-02T16:29:03.588Z,6.25
2023-03-02T16:31:33.881Z,11.43
2023-03-02T16:34:07.037Z,5.32
2023-03-02T16:36:37.657Z,6.03
2023-03-02T16:39:07.375Z,7.25
2023-03-02T16:41:36.800Z,8.27
2023-03-02T16:44:05.297Z,5.95
2023-03-02T16:46:36.775Z,6.75
2023-03-02T16:49:06.197Z,6.47
2023-03-02T16:51:36.246Z,5.32
2023-03-02T16:54:05.024Z,9.50
2023-03-02T16:56:33.636Z,5.57
2023-03-02T16:59:02.205Z,5.63
2023-03-02T17:01:30.745Z,6.25
2023-03-02T17:03:59.212Z,7.10
2023-03-02T17:06:28.134Z,7.82
2023-03-02T17:08:58.087Z,6.63
2023-03-02T17:11:26.674Z,5.53
2023-03-02T17:13:55.291Z,6.85
2023-03-02T17:16:24.935Z,4.63
2023-03-02T17:18:53.401Z,4.65
2023-03-02T17:21:22.178Z,4.50
2023-03-02T17:23:50.628Z,6.40
2023-03-02T17:26:20.507Z,4.95
2023-03-02T17:28:49.024Z,4.97
2023-03-02T17:31:17.627Z,5.50
2023-03-02T17:33:46.222Z,4.63
2023-03-02T17:36:15.875Z,5.90
2023-03-02T17:38:44.557Z,6.25
2023-03-02T17:41:13.572Z,6.22
2023-03-02T17:43:43.753Z,6.18
2023-03-02T17:46:15.025Z,4.82
2023-03-02T17:48:44.204Z,4.35
2023-03-02T17:51:15.038Z,6.18
2023-03-02T17:53:44.441Z,4.80
2023-03-02T17:56:13.956Z,5.90
2023-03-02T17:58:45.315Z,5.15
2023-03-02T18:01:15.870Z,4.10
2023-03-02T18:03:46.121Z,4.78
2023-03-02T18:06:17.985Z,4.65
2023-03-02T18:08:46.411Z,4.93
2023-03-02T18:11:15.062Z,3.42
2023-03-02T18:13:44.918Z,5.50
2023-03-02T18:16:13.478Z,3.42
2023-03-02T18:18:41.949Z,3.72
2023-03-02T18:21:10.426Z,5.15
2023-03-02T18:23:39.830Z,4.10
2023-03-02T18:26:08.305Z,4.93
2023-03-02T18:28:36.823Z,4.13
2023-03-02T18:31:07.225Z,5.00
2023-03-02T18:33:36.457Z,4.32
2023-03-02T18:36:05.616Z,4.20
2023-03-02T18:38:35.172Z,4.90
2023-03-02T18:41:06.122Z,6.20
2023-03-02T18:43:38.483Z,4.93
2023-03-02T18:46:10.454Z,5.35
2023-03-02T18:48:40.077Z,4.43
2023-03-02T18:51:08.580Z,5.05
2023-03-02T18:53:38.196Z,4.57
2023-03-02T18:56:07.323Z,4.22
2023-03-02T18:58:35.887Z,2.30
2023-03-02T19:01:05.001Z,3.00
2023-03-02T19:03:37.116Z,4.10
2023-03-02T19:06:06.564Z,3.95
2023-03-02T19:08:35.873Z,3.55
2023-03-02T19:11:05.503Z,4.72
2023-03-02T19:13:37.201Z,3.00
2023-03-02T19:16:06.458Z,4.43
2023-03-02T19:18:37.864Z,4.88
2023-03-02T19:21:07.034Z,4.13
2023-03-02T19:23:35.553Z,3.97
2023-03-02T19:26:04.920Z,3.58
2023-03-02T19:28:34.250Z,4.05
2023-03-02T19:31:07.067Z,2.83
2023-03-02T19:33:37.982Z,3.63
2023-03-02T19:36:07.621Z,5.30
2023-03-02T19:38:38.022Z,4.15
2023-03-02T19:41:07.401Z,4.38
2023-03-02T19:43:35.995Z,3.28
2023-03-02T19:46:05.123Z,3.88
2023-03-02T19:48:35.635Z,4.90
2023-03-02T19:51:06.291Z,5.53
2023-03-02T19:53:35.793Z,3.88
2023-03-02T19:56:07.266Z,4.40
2023-03-02T19:58:36.186Z,3.92
2023-03-02T20:01:05.265Z,4.35
2023-03-02T20:03:34.046Z,5.20
2023-03-02T20:06:03.286Z,4.88
2023-03-02T20:08:33.223Z,3.38
2023-03-02T20:11:01.736Z,3.60
2023-03-02T20:13:33.202Z,4.35
2023-03-02T20:16:02.495Z,3.63
2023-03-02T20:18:31.165Z,4.60
2023-03-02T20:20:59.670Z,4.80
2023-03-02T20:23:28.506Z,3.90
2023-03-02T20:25:58.483Z,4.10
2023-03-02T20:28:27.246Z,4.60
2023-03-02T20:30:57.972Z,4.15
2023-03-02T20:33:29.632Z,5.35
2023-03-02T20:35:58.931Z,3.80
2023-03-02T20:38:30.718Z,3.30
2023-03-02T20:41:01.070Z,3.60
2023-03-02T20:43:33.051Z,3.95
2023-03-02T20:46:02.247Z,3.55
2023-03-02T20:48:30.831Z,3.58
2023-03-02T20:50:59.429Z,3.78
2023-03-02T20:53:29.575Z,3.88
2023-03-02T20:55:58.970Z,3.30
2023-03-02T20:58:29.356Z,3.40
2023-03-02T21:00:58.105Z,5.07
2023-03-02T21:03:26.573Z,4.35
2023-03-02T21:05:55.107Z,7.00
2023-03-02T21:08:23.552Z,3.85
2023-03-02T21:10:52.077Z,5.03
2023-03-02T21:13:23.760Z,5.30
2023-03-02T21:15:53.944Z,3.58
2023-03-02T21:18:22.591Z,3.97
2023-03-02T21:20:51.154Z,3.78
2023-03-02T21:23:19.716Z,3.67
2023-03-02T21:25:48.412Z,2.58
2023-03-02T21:28:16.903Z,3.50
2023-03-02T21:30:45.476Z,3.88
2023-03-02T21:33:15.436Z,3.97
2023-03-02T21:35:46.446Z,2.40
2023-03-02T21:38:15.042Z,3.67
2023-03-02T21:40:46.087Z,5.18
2023-03-02T21:43:15.514Z,3.22
2023-03-02T21:45:44.055Z,5.18
2023-03-02T21:48:15.782Z,2.25
2023-03-02T21:50:44.905Z,5.07
2023-03-02T21:53:13.460Z,3.13
2023-03-02T21:55:42.512Z,4.93
2023-03-02T21:58:11.581Z,4.13
2023-03-02T22:00:41.179Z,2.50
2023-03-02T22:03:09.805Z,5.20
2023-03-02T22:05:40.266Z,3.88
2023-03-02T22:08:09.204Z,3.97
2023-03-02T22:10:41.634Z,3.70
2023-03-02T22:13:20.589Z,3.42
2023-03-02T22:15:50.985Z,3.92
2023-03-02T22:18:21.098Z,3.78
2023-03-02T22:20:52.523Z,4.50
2023-03-02T22:23:25.215Z,4.15
2023-03-02T22:25:57.225Z,3.45
2023-03-02T22:28:28.533Z,4.20
2023-03-02T22:31:01.066Z,5.55
2023-03-02T22:33:30.718Z,3.60
2023-03-02T22:36:05.946Z,3.05
2023-03-02T22:38:34.414Z,3.50
2023-03-02T22:41:04.644Z,2.90
2023-03-02T22:43:34.335Z,3.00
2023-03-02T22:46:15.355Z,4.05
2023-03-02T22:48:45.317Z,4.22
2023-03-02T22:51:17.253Z,5.30
2023-03-02T22:53:50.182Z,4.00
2023-03-02T22:56:28.548Z,4.47
2023-03-02T22:59:04.052Z,3.63
2023-03-02T23:01:40.205Z,4.35
2023-03-02T23:04:18.201Z,5.10
2023-03-02T23:06:50.080Z,5.18
2023-03-02T23:09:22.085Z,4.97
2023-03-02T23:11:51.878Z,5.13
2023-03-02T23:14:25.067Z,4.25
2023-03-02T23:16:58.520Z,4.70
2023-03-02T23:19:28.397Z,3.90
2023-03-02T23:21:59.139Z,4.25
2023-03-02T23:24:27.695Z,4.68
2023-03-02T23:26:56.211Z,4.55
2023-03-02T23:29:24.714Z,5.00
2023-03-02T23:31:53.401Z,3.20
2023-03-02T23:34:22.152Z,5.30
2023-03-02T23:36:50.713Z,3.67
2023-03-02T23:39:20.643Z,3.40
2023-03-02T23:41:49.223Z,4.25
2023-03-02T23:44:17.905Z,3.58
2023-03-02T23:46:46.444Z,5.07
2023-03-02T23:49:15.359Z,6.72
2023-03-02T23:51:43.983Z,5.53
2023-03-02T23:54:15.619Z,4.28
2023-03-02T23:56:45.588Z,6.63
2023-03-02T23:59:17.112Z,5.72
